Time;durP1;ratioP1;P1;durP2;ratioP2;P2;SDS_P1;SDS_P2;PMS_P1;PMS_P2;Temp;Humidity;BMP_temperature;BMP_pressure;BME280_temperature;BME280_humidity;BME280_pressure;Samples;Min_cycle;Max_cycle;Signal;HPM_P1;HPM_P2
2021/08/23 00:00:07;;;;;;;2.65;0.90;;;;;;;;;;5033056;28;20036;-67
2021/08/23 00:02:35;;;;;;;4.45;1.00;;;;;;;;;;5029892;28;20092;-67
2021/08/23 00:05:02;;;;;;;6.55;1.20;;;;;;;;;;5016712;28;20041;-67
2021/08/23 00:07:30;;;;;;;6.55;1.48;;;;;;;;;;5024589;28;20037;-67
2021/08/23 00:09:57;;;;;;;8.95;1.58;;;;;;;;;;5044672;28;20041;-68
2021/08/23 00:12:24;;;;;;;3.05;0.93;;;;;;;;;;5028992;28;20033;-67
2021/08/23 00:14:52;;;;;;;8.05;1.25;;;;;;;;;;5030968;28;20052;-67
2021/08/23 00:17:19;;;;;;;6.47;0.93;;;;;;;;;;5028261;28;20083;-68
2021/08/23 00:19:46;;;;;;;2.22;0.80;;;;;;;;;;5032837;28;20064;-69
2021/08/23 00:22:30;;;;;;;3.03;1.00;;;;;;;;;;5027074;28;20034;-69
2021/08/23 00:24:57;;;;;;;6.30;1.05;;;;;;;;;;5027590;28;20025;-68
2021/08/23 00:27:25;;;;;;;5.85;1.30;;;;;;;;;;5029860;28;20079;-69
2021/08/23 00:29:52;;;;;;;3.42;1.20;;;;;;;;;;5029422;28;20049;-68
2021/08/23 00:32:19;;;;;;;2.22;0.90;;;;;;;;;;5027530;28;20037;-68
2021/08/23 00:34:46;;;;;;;5.45;1.02;;;;;;;;;;5026975;28;20047;-68
2021/08/23 00:37:14;;;;;;;5.38;0.90;;;;;;;;;;5010838;28;20453;-68
2021/08/23 00:39:42;;;;;;;2.90;0.80;;;;;;;;;;5026865;28;20040;-68
2021/08/23 00:42:09;;;;;;;6.35;1.15;;;;;;;;;;5029325;28;20034;-68
2021/08/23 00:44:37;;;;;;;5.75;1.13;;;;;;;;;;5028901;28;20057;-66
2021/08/23 00:47:07;;;;;;;4.43;1.30;;;;;;;;;;5028629;28;20103;-66
2021/08/23 00:49:35;;;;;;;6.50;1.13;;;;;;;;;;5024620;28;20394;-67
2021/08/23 00:52:03;;;;;;;7.35;1.27;;;;;;;;;;5026455;28;20030;-66
2021/08/23 00:54:30;;;;;;;6.65;1.35;;;;;;;;;;5029913;28;20029;-68
2021/08/23 00:56:57;;;;;;;8.82;1.58;;;;;;;;;;5027615;28;20057;-66
2021/08/23 00:59:25;;;;;;;5.63;1.15;;;;;;;;;;5013381;28;20034;-67
2021/08/23 01:01:55;;;;;;;5.10;1.20;;;;;;;;;;4993218;28;20038;-66
2021/08/23 01:04:24;;;;;;;4.60;1.05;;;;;;;;;;5031485;28;20033;-66
2021/08/23 01:06:52;;;;;;;4.93;1.25;;;;;;;;;;5031420;28;20107;-66
2021/08/23 01:09:20;;;;;;;6.43;1.30;;;;;;;;;;5028073;28;20038;-67
2021/08/23 01:11:52;;;;;;;3.60;0.90;;;;;;;;;;5026771;28;20046;-66
2021/08/23 01:14:20;;;;;;;3.58;1.02;;;;;;;;;;5030340;28;20044;-66
2021/08/23 01:16:47;;;;;;;8.02;1.25;;;;;;;;;;5031558;28;20141;-66
2021/08/23 01:19:16;;;;;;;3.85;1.10;;;;;;;;;;5013500;28;20498;-65
2021/08/23 01:21:44;;;;;;;7.53;1.42;;;;;;;;;;5031381;28;20068;-65
2021/08/23 01:24:12;;;;;;;4.32;1.27;;;;;;;;;;5035017;28;20087;-65
2021/08/23 01:26:43;;;;;;;4.82;1.02;;;;;;;;;;5032348;28;20068;-66
2021/08/23 01:29:22;;;;;;;3.15;0.88;;;;;;;;;;5029337;28;20038;-66
2021/08/23 01:32:09;;;;;;;5.00;0.90;;;;;;;;;;5045085;28;20095;-67
2021/08/23 01:34:36;;;;;;;3.65;0.93;;;;;;;;;;5011625;28;20049;-66
2021/08/23 01:37:04;;;;;;;2.00;0.60;;;;;;;;;;5025815;28;20033;-65
2021/08/23 01:39:35;;;;;;;6.20;1.42;;;;;;;;;;5037853;28;20083;-66
2021/08/23 01:42:03;;;;;;;4.50;1.00;;;;;;;;;;5049058;28;20029;-65
2021/08/23 01:44:30;;;;;;;7.55;1.20;;;;;;;;;;5015133;28;20486;-65
2021/08/23 01:46:57;;;;;;;4.13;1.10;;;;;;;;;;5030017;28;20161;-66
2021/08/23 01:49:24;;;;;;;4.43;0.70;;;;;;;;;;5031712;28;20462;-66
2021/08/23 01:51:51;;;;;;;3.33;0.77;;;;;;;;;;5035693;28;20045;-65
2021/08/23 01:54:18;;;;;;;7.15;0.90;;;;;;;;;;5030731;28;20030;-66
2021/08/23 01:56:45;;;;;;;2.55;0.60;;;;;;;;;;5029890;28;20038;-66
2021/08/23 01:59:12;;;;;;;3.88;1.05;;;;;;;;;;5030026;28;20038;-66
2021/08/23 02:01:40;;;;;;;2.42;0.68;;;;;;;;;;5032074;28;20030;-66
2021/08/23 02:04:07;;;;;;;2.22;0.70;;;;;;;;;;5036716;28;20485;-68
2021/08/23 02:06:34;;;;;;;3.72;0.98;;;;;;;;;;5029200;28;20069;-66
2021/08/23 02:09:01;;;;;;;2.63;0.77;;;;;;;;;;5039897;28;20030;-66
2021/08/23 02:11:28;;;;;;;8.27;1.73;;;;;;;;;;5034212;28;20041;-66
2021/08/23 02:13:56;;;;;;;4.07;0.80;;;;;;;;;;5030632;28;20034;-65
2021/08/23 02:16:23;;;;;;;3.33;0.95;;;;;;;;;;5032017;28;20029;-65
2021/08/23 02:18:50;;;;;;;3.20;1.00;;;;;;;;;;5030145;28;20473;-66
2021/08/23 02:21:21;;;;;;;4.53;0.80;;;;;;;;;;5034055;28;20044;-66
2021/08/23 02:23:49;;;;;;;6.00;1.05;;;;;;;;;;5021447;28;20559;-66
2021/08/23 02:26:16;;;;;;;3.17;1.17;;;;;;;;;;5031130;28;20113;-65
2021/08/23 02:28:43;;;;;;;7.15;1.23;;;;;;;;;;5040365;28;20397;-66
2021/08/23 02:31:11;;;;;;;4.28;0.70;;;;;;;;;;5034884;28;20037;-66
2021/08/23 02:33:38;;;;;;;2.55;0.68;;;;;;;;;;5033165;28;20053;-66
2021/08/23 02:36:05;;;;;;;7.05;1.30;;;;;;;;;;5034366;28;20029;-66
2021/08/23 02:38:32;;;;;;;4.50;0.82;;;;;;;;;;5034351;28;20038;-65
2021/08/23 02:40:59;;;;;;;2.53;0.93;;;;;;;;;;5032195;28;20050;-68
2021/08/23 02:43:26;;;;;;;3.70;0.98;;;;;;;;;;5032611;28;20037;-66
2021/08/23 02:45:53;;;;;;;2.55;0.65;;;;;;;;;;5032921;28;20091;-67
2021/08/23 02:48:20;;;;;;;3.75;0.68;;;;;;;;;;5031957;28;20099;-67
2021/08/23 02:50:48;;;;;;;6.07;1.20;;;;;;;;;;5034043;28;20041;-67
2021/08/23 02:53:15;;;;;;;2.47;0.75;;;;;;;;;;5033126;28;20029;-66
2021/08/23 02:55:42;;;;;;;2.83;0.52;;;;;;;;;;5034236;28;20037;-66
2021/08/23 02:58:10;;;;;;;3.63;0.90;;;;;;;;;;5032567;28;20036;-65
2021/08/23 03:00:37;;;;;;;1.70;0.60;;;;;;;;;;5028921;28;20037;-66
2021/08/23 03:03:04;;;;;;;3.80;0.93;;;;;;;;;;5031118;28;20068;-67
2021/08/23 03:05:32;;;;;;;1.45;0.82;;;;;;;;;;5033125;28;20037;-66
2021/08/23 03:07:59;;;;;;;4.88;1.33;;;;;;;;;;5031052;28;20096;-66
2021/08/23 03:10:26;;;;;;;2.10;0.63;;;;;;;;;;5032325;28;20434;-65
2021/08/23 03:12:53;;;;;;;4.63;1.20;;;;;;;;;;5030578;28;20034;-67
2021/08/23 03:15:21;;;;;;;1.40;0.60;;;;;;;;;;5036324;28;20113;-66
2021/08/23 03:17:49;;;;;;;1.00;0.45;;;;;;;;;;5036697;28;20029;-67
2021/08/23 03:20:17;;;;;;;1.55;0.55;;;;;;;;;;5033555;28;20434;-67
2021/08/23 03:22:44;;;;;;;1.48;0.60;;;;;;;;;;5031716;28;20029;-66
2021/08/23 03:25:11;;;;;;;1.83;0.75;;;;;;;;;;5034726;28;20044;-66
2021/08/23 03:27:38;;;;;;;5.15;1.20;;;;;;;;;;5028837;28;20044;-68
2021/08/23 03:30:06;;;;;;;4.80;1.10;;;;;;;;;;5035409;28;20060;-66
2021/08/23 03:32:33;;;;;;;2.92;0.80;;;;;;;;;;5037806;28;20473;-68
2021/08/23 03:35:01;;;;;;;2.20;0.73;;;;;;;;;;5028762;28;20045;-67
2021/08/23 03:37:28;;;;;;;2.63;0.82;;;;;;;;;;5028935;28;20048;-66
2021/08/23 03:39:55;;;;;;;2.85;0.90;;;;;;;;;;5044090;28;20040;-66
2021/08/23 03:42:23;;;;;;;2.78;1.00;;;;;;;;;;5035186;28;21919;-66
2021/08/23 03:44:50;;;;;;;2.00;0.73;;;;;;;;;;5031884;28;20033;-66
2021/08/23 03:47:18;;;;;;;4.57;0.90;;;;;;;;;;5033842;28;20026;-67
2021/08/23 03:49:45;;;;;;;4.15;0.90;;;;;;;;;;5035914;28;20033;-67
2021/08/23 03:52:13;;;;;;;2.28;0.82;;;;;;;;;;5030296;28;20068;-66
2021/08/23 03:54:40;;;;;;;2.92;0.70;;;;;;;;;;5026108;28;20061;-67
2021/08/23 03:57:07;;;;;;;4.45;0.80;;;;;;;;;;5029612;28;20048;-67
2021/08/23 03:59:34;;;;;;;4.00;0.80;;;;;;;;;;5032916;28;20482;-66
2021/08/23 04:02:02;;;;;;;1.92;0.88;;;;;;;;;;5029478;28;20038;-68
2021/08/23 04:04:29;;;;;;;2.22;0.80;;;;;;;;;;5027040;28;20161;-67
2021/08/23 04:06:56;;;;;;;3.58;0.70;;;;;;;;;;5031376;28;20100;-67
2021/08/23 04:09:23;;;;;;;4.18;1.02;;;;;;;;;;5036789;28;20073;-68
2021/08/23 04:11:50;;;;;;;12.90;1.58;;;;;;;;;;5042252;28;20073;-67
2021/08/23 04:14:17;;;;;;;3.72;0.50;;;;;;;;;;5029015;28;20033;-66
2021/08/23 04:16:44;;;;;;;25.88;2.10;;;;;;;;;;5031823;28;20450;-67
2021/08/23 04:19:12;;;;;;;10.63;1.50;;;;;;;;;;5028537;28;20566;-67
2021/08/23 04:21:39;;;;;;;4.47;0.70;;;;;;;;;;5042800;28;20029;-67
2021/08/23 04:24:06;;;;;;;8.10;0.77;;;;;;;;;;5024332;28;20059;-67
2021/08/23 04:26:33;;;;;;;6.97;0.80;;;;;;;;;;5033037;28;20030;-67
2021/08/23 04:29:00;;;;;;;4.15;1.63;;;;;;;;;;5022245;28;20047;-66
2021/08/23 04:31:31;;;;;;;5.75;0.98;;;;;;;;;;5043002;28;20041;-67
2021/08/23 04:33:58;;;;;;;11.07;0.80;;;;;;;;;;5029334;28;20091;-67
2021/08/23 04:36:25;;;;;;;4.65;1.02;;;;;;;;;;5035817;28;20036;-67
2021/08/23 04:38:53;;;;;;;4.53;0.68;;;;;;;;;;5029986;28;20034;-67
2021/08/23 04:41:20;;;;;;;4.82;0.50;;;;;;;;;;5034318;28;20048;-66
2021/08/23 04:43:47;;;;;;;4.53;1.30;;;;;;;;;;5029230;28;20091;-67
2021/08/23 04:46:14;;;;;;;3.53;0.60;;;;;;;;;;5031223;28;20477;-68
2021/08/23 04:48:41;;;;;;;8.00;1.10;;;;;;;;;;5024555;28;20026;-67
2021/08/23 04:51:08;;;;;;;4.97;0.65;;;;;;;;;;5031755;28;20040;-67
2021/08/23 04:53:35;;;;;;;3.42;0.63;;;;;;;;;;5029745;28;20044;-67
2021/08/23 04:56:03;;;;;;;5.63;0.70;;;;;;;;;;5031611;28;20064;-66
2021/08/23 04:58:30;;;;;;;3.95;0.60;;;;;;;;;;5029480;28;20034;-66
2021/08/23 05:00:57;;;;;;;4.07;0.80;;;;;;;;;;5024149;28;20057;-66
2021/08/23 05:03:24;;;;;;;6.22;1.00;;;;;;;;;;5029795;28;20060;-66
2021/08/23 05:05:51;;;;;;;3.20;0.63;;;;;;;;;;5031146;28;20045;-67
2021/08/23 05:08:19;;;;;;;3.38;0.65;;;;;;;;;;5028742;28;20489;-66
2021/08/23 05:10:46;;;;;;;1.55;0.40;;;;;;;;;;5030015;28;20037;-67
2021/08/23 05:13:13;;;;;;;1.95;0.40;;;;;;;;;;5010458;28;20038;-68
2021/08/23 05:15:41;;;;;;;1.38;0.40;;;;;;;;;;5013684;28;20034;-68
2021/08/23 05:18:08;;;;;;;3.08;0.43;;;;;;;;;;5026225;28;20037;-67
2021/08/23 05:20:35;;;;;;;4.20;0.45;;;;;;;;;;5030495;28;20029;-67
2021/08/23 05:23:02;;;;;;;1.35;0.40;;;;;;;;;;5028776;28;20516;-67
2021/08/23 05:25:32;;;;;;;1.85;0.50;;;;;;;;;;5031114;28;20118;-67
2021/08/23 05:27:59;;;;;;;3.95;0.52;;;;;;;;;;5027265;28;20033;-67
2021/08/23 05:30:26;;;;;;;1.55;0.30;;;;;;;;;;5030110;28;20549;-68
2021/08/23 05:32:53;;;;;;;1.70;0.30;;;;;;;;;;5029209;28;20037;-67
2021/08/23 05:35:20;;;;;;;4.88;0.60;;;;;;;;;;5031003;28;20026;-67
2021/08/23 05:37:49;;;;;;;2.50;0.70;;;;;;;;;;5022726;28;20565;-67
2021/08/23 05:40:17;;;;;;;3.92;0.50;;;;;;;;;;5030162;28;20064;-67
2021/08/23 05:42:47;;;;;;;1.20;0.50;;;;;;;;;;5028029;28;20029;-67
2021/08/23 05:45:14;;;;;;;4.03;0.70;;;;;;;;;;5031034;28;20032;-67
2021/08/23 05:47:41;;;;;;;2.10;1.15;;;;;;;;;;5032268;28;20367;-67
2021/08/23 05:50:08;;;;;;;2.97;0.80;;;;;;;;;;5031472;28;20038;-67
2021/08/23 05:52:35;;;;;;;5.00;0.95;;;;;;;;;;5032986;28;20064;-67
2021/08/23 05:55:03;;;;;;;3.50;0.50;;;;;;;;;;5033637;28;20053;-67
2021/08/23 05:57:30;;;;;;;3.22;0.77;;;;;;;;;;5032047;28;20320;-67
2021/08/23 05:59:57;;;;;;;2.78;0.77;;;;;;;;;;5033345;28;20044;-68
2021/08/23 06:02:24;;;;;;;6.50;1.05;;;;;;;;;;5033213;28;20040;-68
2021/08/23 06:04:51;;;;;;;2.25;0.60;;;;;;;;;;5033922;28;21143;-68
2021/08/23 06:07:18;;;;;;;2.65;0.95;;;;;;;;;;5034900;28;20084;-67
2021/08/23 06:09:45;;;;;;;3.88;1.00;;;;;;;;;;5033772;28;20117;-68
2021/08/23 06:12:13;;;;;;;2.63;0.75;;;;;;;;;;5033621;28;20037;-67
2021/08/23 06:14:41;;;;;;;2.72;0.60;;;;;;;;;;5030225;28;20143;-68
2021/08/23 06:17:08;;;;;;;3.15;0.90;;;;;;;;;;5036091;28;20045;-66
2021/08/23 06:19:35;;;;;;;1.85;0.50;;;;;;;;;;5037495;28;20055;-67
2021/08/23 06:22:03;;;;;;;4.13;1.00;;;;;;;;;;5038942;28;20120;-66
2021/08/23 06:24:30;;;;;;;2.63;0.60;;;;;;;;;;5029231;28;20022;-67
2021/08/23 06:26:57;;;;;;;4.90;0.80;;;;;;;;;;5031686;28;20441;-67
2021/08/23 06:29:24;;;;;;;3.50;0.98;;;;;;;;;;5029938;28;20100;-66
2021/08/23 06:31:51;;;;;;;3.25;0.60;;;;;;;;;;5032836;28;20099;-66
2021/08/23 06:34:19;;;;;;;2.85;0.50;;;;;;;;;;5030321;28;20100;-67
2021/08/23 06:36:46;;;;;;;2.95;0.77;;;;;;;;;;5031342;28;20030;-67
2021/08/23 06:39:13;;;;;;;4.63;0.52;;;;;;;;;;5031053;28;20068;-67
2021/08/23 06:41:40;;;;;;;1.92;0.60;;;;;;;;;;5032061;28;20099;-67
2021/08/23 06:44:08;;;;;;;2.35;1.00;;;;;;;;;;5029907;28;20100;-67
2021/08/23 06:46:35;;;;;;;3.50;0.80;;;;;;;;;;5029837;28;20026;-67
2021/08/23 06:49:02;;;;;;;3.55;0.77;;;;;;;;;;5030020;28;20030;-66
2021/08/23 06:51:29;;;;;;;7.78;1.10;;;;;;;;;;5032614;28;20091;-67
2021/08/23 06:53:58;;;;;;;5.20;1.42;;;;;;;;;;5031350;28;20033;-66
2021/08/23 06:56:25;;;;;;;4.95;0.90;;;;;;;;;;5031895;28;20106;-67
2021/08/23 06:58:52;;;;;;;7.10;1.00;;;;;;;;;;5032323;28;20036;-66
2021/08/23 07:01:20;;;;;;;4.20;1.52;;;;;;;;;;5032959;28;20498;-68
2021/08/23 07:03:48;;;;;;;5.03;1.33;;;;;;;;;;5033955;28;20084;-67
2021/08/23 07:06:15;;;;;;;4.32;1.40;;;;;;;;;;5032836;28;20178;-67
2021/08/23 07:08:43;;;;;;;7.88;1.25;;;;;;;;;;5011750;28;20125;-66
2021/08/23 07:11:11;;;;;;;0.85;0.50;;;;;;;;;;5028165;28;20085;-66
2021/08/23 07:13:38;;;;;;;3.00;0.90;;;;;;;;;;5029429;28;20033;-67
2021/08/23 07:16:06;;;;;;;1.00;0.52;;;;;;;;;;5028435;28;20124;-66
2021/08/23 07:18:33;;;;;;;3.78;1.00;;;;;;;;;;5029250;28;20037;-66
2021/08/23 07:21:00;;;;;;;2.47;0.80;;;;;;;;;;5030482;28;20040;-67
2021/08/23 07:23:28;;;;;;;1.35;0.65;;;;;;;;;;5030243;28;20501;-65
2021/08/23 07:25:55;;;;;;;2.13;0.60;;;;;;;;;;5028387;28;20057;-66
2021/08/23 07:28:22;;;;;;;2.55;0.75;;;;;;;;;;5027909;28;20034;-66
2021/08/23 07:30:49;;;;;;;2.47;0.80;;;;;;;;;;5026255;28;20567;-66
2021/08/23 07:33:17;;;;;;;1.60;0.60;;;;;;;;;;5025757;28;20084;-67
2021/08/23 07:35:44;;;;;;;2.13;1.02;;;;;;;;;;5029423;28;20460;-65
2021/08/23 07:38:11;;;;;;;4.15;0.75;;;;;;;;;;5029122;28;20486;-66
2021/08/23 07:40:38;;;;;;;4.93;0.98;;;;;;;;;;5029758;28;20091;-67
2021/08/23 07:43:05;;;;;;;2.05;1.00;;;;;;;;;;5021271;28;20041;-67
2021/08/23 07:45:35;;;;;;;4.00;1.00;;;;;;;;;;5021907;28;20482;-67
2021/08/23 07:48:02;;;;;;;2.50;0.90;;;;;;;;;;5023400;28;20044;-66
2021/08/23 07:50:29;;;;;;;2.58;0.75;;;;;;;;;;5022616;28;20049;-67
2021/08/23 07:52:56;;;;;;;1.80;0.70;;;;;;;;;;5022212;28;20038;-68
2021/08/23 07:55:24;;;;;;;1.75;0.90;;;;;;;;;;5028924;28;20106;-65
2021/08/23 07:57:51;;;;;;;2.38;0.68;;;;;;;;;;5031802;28;20363;-67
2021/08/23 08:00:20;;;;;;;2.47;0.68;;;;;;;;;;5030496;28;20441;-68
2021/08/23 08:02:48;;;;;;;2.28;0.70;;;;;;;;;;5027885;28;20387;-67
2021/08/23 08:05:15;;;;;;;3.35;0.85;;;;;;;;;;5028708;28;20029;-67
2021/08/23 08:07:43;;;;;;;2.22;0.70;;;;;;;;;;5029862;28;20036;-67
2021/08/23 08:10:11;;;;;;;4.25;1.05;;;;;;;;;;5028168;28;20091;-68
2021/08/23 08:12:38;;;;;;;2.55;0.60;;;;;;;;;;5029238;28;20030;-68
2021/08/23 08:15:06;;;;;;;1.05;0.40;;;;;;;;;;5031256;28;20037;-67
2021/08/23 08:17:34;;;;;;;1.92;0.80;;;;;;;;;;5029395;28;20044;-67
2021/08/23 08:20:01;;;;;;;2.38;0.80;;;;;;;;;;5031925;28;20037;-67
2021/08/23 08:22:28;;;;;;;3.55;0.70;;;;;;;;;;5017497;28;20029;-67
2021/08/23 08:24:55;;;;;;;2.83;0.80;;;;;;;;;;5025546;28;20104;-68
2021/08/23 08:27:22;;;;;;;2.42;1.10;;;;;;;;;;5030992;28;20155;-67
2021/08/23 08:29:49;;;;;;;2.53;0.77;;;;;;;;;;5029879;28;20033;-68
2021/08/23 08:32:16;;;;;;;3.40;1.13;;;;;;;;;;5031066;28;20103;-68
2021/08/23 08:34:44;;;;;;;4.10;1.10;;;;;;;;;;5031480;28;20145;-68
2021/08/23 08:37:11;;;;;;;4.65;0.90;;;;;;;;;;5030642;28;20072;-67
2021/08/23 08:39:38;;;;;;;4.40;1.17;;;;;;;;;;5030454;28;20044;-68
2021/08/23 08:42:05;;;;;;;5.50;1.42;;;;;;;;;;5030565;28;20040;-68
2021/08/23 08:44:34;;;;;;;5.20;1.25;;;;;;;;;;5030818;28;20487;-67
2021/08/23 08:47:02;;;;;;;3.65;0.90;;;;;;;;;;5024008;28;20041;-68
2021/08/23 08:49:30;;;;;;;3.13;1.10;;;;;;;;;;5027146;28;20520;-67
2021/08/23 08:51:57;;;;;;;4.15;1.05;;;;;;;;;;5024671;28;20049;-68
2021/08/23 08:54:24;;;;;;;3.92;1.30;;;;;;;;;;5008696;28;20076;-68
2021/08/23 08:56:52;;;;;;;4.10;1.35;;;;;;;;;;5027700;28;20038;-68
2021/08/23 08:59:19;;;;;;;1.90;1.20;;;;;;;;;;5039269;28;20797;-67
2021/08/23 09:01:48;;;;;;;4.20;1.55;;;;;;;;;;5027671;28;20045;-68
2021/08/23 09:04:16;;;;;;;4.57;1.70;;;;;;;;;;5029991;28;20034;-68
2021/08/23 09:06:43;;;;;;;3.53;1.30;;;;;;;;;;5026862;28;20390;-67
2021/08/23 09:09:12;;;;;;;3.33;1.10;;;;;;;;;;5028869;28;20053;-67
2021/08/23 09:11:42;;;;;;;7.43;1.55;;;;;;;;;;5027442;28;20132;-67
2021/08/23 09:14:10;;;;;;;2.20;1.40;;;;;;;;;;5026815;28;20033;-67
2021/08/23 09:16:39;;;;;;;3.53;1.50;;;;;;;;;;5028842;28;20038;-67
2021/08/23 09:19:09;;;;;;;4.63;1.25;;;;;;;;;;5024426;28;20494;-67
2021/08/23 09:21:41;;;;;;;4.63;1.50;;;;;;;;;;5026685;28;20521;-66
2021/08/23 09:24:18;;;;;;;3.45;1.90;;;;;;;;;;5027165;28;20034;-66
2021/08/23 09:26:45;;;;;;;3.35;1.70;;;;;;;;;;5029602;28;20092;-67
2021/08/23 09:29:12;;;;;;;4.47;1.48;;;;;;;;;;5026664;28;20037;-66
2021/08/23 09:31:41;;;;;;;3.30;1.40;;;;;;;;;;5025465;28;20049;-66
2021/08/23 09:34:09;;;;;;;2.53;1.45;;;;;;;;;;5032320;28;20172;-67
2021/08/23 09:36:37;;;;;;;2.42;1.50;;;;;;;;;;5025730;28;20029;-66
2021/08/23 09:39:12;;;;;;;2.58;1.20;;;;;;;;;;5024472;28;20083;-67
2021/08/23 09:41:43;;;;;;;2.75;1.17;;;;;;;;;;5027851;28;20036;-67
2021/08/23 09:44:11;;;;;;;3.88;1.73;;;;;;;;;;5028693;28;20395;-67
2021/08/23 09:46:39;;;;;;;3.30;1.45;;;;;;;;;;5032295;28;20433;-66
2021/08/23 09:49:07;;;;;;;3.90;1.58;;;;;;;;;;5015033;28;20084;-67
2021/08/23 09:51:39;;;;;;;3.50;1.55;;;;;;;;;;5029139;28;20037;-66
2021/08/23 09:54:13;;;;;;;4.47;1.55;;;;;;;;;;5028334;28;20033;-66
2021/08/23 09:56:46;;;;;;;3.92;1.88;;;;;;;;;;5030502;28;20512;-66
2021/08/23 09:59:18;;;;;;;1.50;1.08;;;;;;;;;;5028498;28;20116;-66
2021/08/23 10:01:45;;;;;;;2.30;1.40;;;;;;;;;;5030877;28;20430;-67
2021/08/23 10:04:13;;;;;;;6.22;1.67;;;;;;;;;;5029436;28;20038;-66
2021/08/23 10:06:41;;;;;;;3.47;1.17;;;;;;;;;;5030995;28;20033;-66
2021/08/23 10:09:09;;;;;;;5.60;1.70;;;;;;;;;;5029294;28;20490;-67
2021/08/23 10:11:37;;;;;;;2.67;1.48;;;;;;;;;;5030463;28;20383;-67
2021/08/23 10:14:05;;;;;;;4.20;1.40;;;;;;;;;;5022326;28;20042;-67
2021/08/23 10:16:35;;;;;;;4.20;1.55;;;;;;;;;;5030174;28;20102;-68
2021/08/23 10:19:03;;;;;;;3.38;1.48;;;;;;;;;;5029675;28;20036;-68
2021/08/23 10:21:31;;;;;;;3.90;1.17;;;;;;;;;;5024059;28;20375;-70
2021/08/23 10:23:59;;;;;;;5.80;2.03;;;;;;;;;;5026851;28;20109;-68
2021/08/23 10:26:26;;;;;;;4.55;1.55;;;;;;;;;;5028953;28;20026;-67
2021/08/23 10:28:53;;;;;;;2.75;1.60;;;;;;;;;;5025672;28;20041;-67
2021/08/23 10:31:22;;;;;;;3.80;2.03;;;;;;;;;;5030813;28;20037;-68
2021/08/23 10:33:51;;;;;;;4.05;1.80;;;;;;;;;;5032304;28;20041;-67
2021/08/23 10:36:18;;;;;;;3.17;1.67;;;;;;;;;;5033529;28;20524;-67
2021/08/23 10:38:46;;;;;;;4.57;1.90;;;;;;;;;;5032844;28;20132;-68
2021/08/23 10:41:14;;;;;;;3.10;1.73;;;;;;;;;;5031747;28;22593;-66
2021/08/23 10:43:47;;;;;;;2.97;1.90;;;;;;;;;;5031221;28;20026;-66
2021/08/23 10:46:31;;;;;;;5.65;2.08;;;;;;;;;;5034271;28;20041;-67
2021/08/23 10:48:59;;;;;;;3.83;2.35;;;;;;;;;;5031401;28;20033;-66
2021/08/23 10:51:45;;;;;;;5.38;2.17;;;;;;;;;;5032611;28;20144;-66
2021/08/23 10:54:23;;;;;;;3.22;1.95;;;;;;;;;;5030864;28;20525;-67
2021/08/23 10:57:08;;;;;;;4.55;2.42;;;;;;;;;;5025612;28;20038;-66
2021/08/23 10:59:53;;;;;;;3.05;2.20;;;;;;;;;;5019487;28;20109;-67
2021/08/23 11:02:34;;;;;;;4.60;2.00;;;;;;;;;;5032392;28;20037;-67
2021/08/23 11:05:06;;;;;;;4.80;2.30;;;;;;;;;;5029648;28;20083;-67
2021/08/23 11:07:34;;;;;;;4.72;1.73;;;;;;;;;;5030917;28;20072;-67
2021/08/23 11:10:07;;;;;;;5.03;2.15;;;;;;;;;;5033416;28;20022;-67
2021/08/23 11:12:51;;;;;;;3.80;1.48;;;;;;;;;;5031444;28;20393;-66
2021/08/23 11:15:28;;;;;;;4.43;1.73;;;;;;;;;;5030604;28;20102;-67
2021/08/23 11:17:56;;;;;;;4.63;1.55;;;;;;;;;;5031354;28;20116;-68
2021/08/23 11:20:24;;;;;;;3.47;1.95;;;;;;;;;;5014785;28;20041;-66
2021/08/23 11:22:55;;;;;;;5.18;1.77;;;;;;;;;;5030424;28;20037;-67
2021/08/23 11:25:33;;;;;;;3.88;1.85;;;;;;;;;;5032788;28;20113;-67
2021/08/23 11:28:01;;;;;;;5.75;2.50;;;;;;;;;;5031170;28;20071;-66
2021/08/23 11:30:29;;;;;;;5.25;2.40;;;;;;;;;;5032798;28;20037;-67
2021/08/23 11:32:57;;;;;;;5.95;2.20;;;;;;;;;;5031999;28;20042;-66
2021/08/23 11:35:24;;;;;;;5.03;1.98;;;;;;;;;;5031690;28;20493;-66
2021/08/23 11:38:01;;;;;;;4.70;1.90;;;;;;;;;;5030354;28;20036;-67
2021/08/23 11:40:29;;;;;;;6.13;2.28;;;;;;;;;;5031742;28;20041;-66
2021/08/23 11:42:57;;;;;;;4.63;2.05;;;;;;;;;;5028084;28;20034;-66
2021/08/23 11:45:26;;;;;;;3.42;1.63;;;;;;;;;;5029381;28;20099;-66
2021/08/23 11:47:54;;;;;;;3.22;1.70;;;;;;;;;;5029083;28;20054;-65
2021/08/23 11:50:21;;;;;;;5.15;1.92;;;;;;;;;;5031422;28;20045;-66
2021/08/23 11:52:49;;;;;;;3.78;2.08;;;;;;;;;;5029533;28;20156;-65
2021/08/23 11:55:26;;;;;;;4.57;2.05;;;;;;;;;;5031172;28;20033;-66
2021/08/23 11:58:00;;;;;;;3.85;2.13;;;;;;;;;;5029486;28;20041;-66
2021/08/23 12:00:27;;;;;;;;;;;;;;;;;;5033429;28;20045;-66
2021/08/23 12:03:03;;;;;;;3.30;1.80;;;;;;;;;;5031571;28;19927;-66
2021/08/23 12:05:34;;;;;;;5.68;2.50;;;;;;;;;;5029649;28;20041;-65
2021/08/23 12:08:01;;;;;;;2.90;1.80;;;;;;;;;;5024242;28;20108;-66
2021/08/23 12:10:30;;;;;;;5.00;2.17;;;;;;;;;;5031614;28;20479;-66
2021/08/23 12:13:07;;;;;;;7.05;2.70;;;;;;;;;;5032705;28;20030;-66
2021/08/23 12:15:36;;;;;;;3.70;2.33;;;;;;;;;;5030593;28;20553;-66
2021/08/23 12:18:10;;;;;;;5.00;2.03;;;;;;;;;;5013743;28;20045;-66
2021/08/23 12:20:38;;;;;;;5.43;2.13;;;;;;;;;;5016786;28;20034;-66
2021/08/23 12:23:05;;;;;;;4.05;2.38;;;;;;;;;;5032662;28;20037;-66
2021/08/23 12:25:32;;;;;;;5.00;2.40;;;;;;;;;;5033420;28;20033;-65
2021/08/23 12:27:59;;;;;;;4.22;2.45;;;;;;;;;;5030124;28;20522;-67
2021/08/23 12:30:28;;;;;;;5.75;1.77;;;;;;;;;;5030459;28;20038;-65
2021/08/23 12:32:55;;;;;;;3.45;1.88;;;;;;;;;;5012604;28;20136;-65
2021/08/23 12:35:26;;;;;;;4.00;1.75;;;;;;;;;;5014371;28;20393;-66
2021/08/23 12:37:53;;;;;;;7.43;2.28;;;;;;;;;;5030780;28;20060;-68
2021/08/23 12:40:20;;;;;;;3.17;2.15;;;;;;;;;;5028146;28;20044;-67
2021/08/23 12:42:51;;;;;;;6.22;2.38;;;;;;;;;;5018748;28;20053;-67
2021/08/23 12:45:19;;;;;;;4.53;2.97;;;;;;;;;;5019902;28;20037;-66
2021/08/23 12:47:46;;;;;;;5.90;2.97;;;;;;;;;;5029676;28;20032;-66
2021/08/23 12:50:13;;;;;;;4.85;2.40;;;;;;;;;;5032250;28;20518;-66
2021/08/23 12:52:40;;;;;;;3.78;2.58;;;;;;;;;;5028281;28;20033;-68
2021/08/23 12:55:07;;;;;;;6.20;3.35;;;;;;;;;;5027505;28;20029;-66
2021/08/23 12:57:34;;;;;;;4.68;2.80;;;;;;;;;;5028665;28;20099;-66
2021/08/23 13:00:02;;;;;;;7.05;2.95;;;;;;;;;;5029397;28;20026;-67
2021/08/23 13:02:29;;;;;;;5.72;2.83;;;;;;;;;;5030086;28;20116;-67
2021/08/23 13:04:56;;;;;;;8.95;3.05;;;;;;;;;;5030637;28;20032;-66
2021/08/23 13:07:23;;;;;;;4.93;2.70;;;;;;;;;;5027890;28;20567;-67
2021/08/23 13:09:51;;;;;;;5.65;3.00;;;;;;;;;;5027136;28;20029;-67
2021/08/23 13:12:18;;;;;;;10.70;3.70;;;;;;;;;;5030778;28;20068;-67
2021/08/23 13:14:45;;;;;;;8.15;3.03;;;;;;;;;;5027216;28;20105;-66
2021/08/23 13:17:13;;;;;;;10.77;3.55;;;;;;;;;;5029053;28;20034;-66
2021/08/23 13:19:40;;;;;;;6.50;3.30;;;;;;;;;;5025368;28;20054;-65
2021/08/23 13:22:07;;;;;;;6.13;4.03;;;;;;;;;;5009631;28;20550;-65
2021/08/23 13:24:40;;;;;;;9.40;4.10;;;;;;;;;;5028138;28;20039;-65
2021/08/23 13:27:08;;;;;;;12.43;4.27;;;;;;;;;;5028209;28;20038;-66
2021/08/23 13:29:35;;;;;;;7.50;4.43;;;;;;;;;;5029406;28;20032;-65
2021/08/23 13:32:02;;;;;;;9.43;5.57;;;;;;;;;;5027911;28;20343;-67
2021/08/23 13:34:29;;;;;;;16.92;5.90;;;;;;;;;;5029648;28;20097;-67
2021/08/23 13:36:56;;;;;;;13.15;5.65;;;;;;;;;;5027010;28;20026;-66
2021/08/23 13:39:27;;;;;;;12.77;5.47;;;;;;;;;;5028231;28;20674;-66
2021/08/23 13:41:54;;;;;;;14.73;4.10;;;;;;;;;;5029377;28;20037;-67
2021/08/23 13:44:21;;;;;;;13.30;5.22;;;;;;;;;;5027961;28;20026;-67
2021/08/23 13:46:48;;;;;;;12.45;4.80;;;;;;;;;;5029112;28;20041;-67
2021/08/23 13:49:16;;;;;;;16.95;5.03;;;;;;;;;;5024583;28;20038;-66
2021/08/23 13:51:43;;;;;;;12.27;6.00;;;;;;;;;;5028444;28;20033;-66
2021/08/23 13:54:10;;;;;;;20.35;5.95;;;;;;;;;;5028578;28;20406;-67
2021/08/23 13:56:37;;;;;;;11.18;6.05;;;;;;;;;;5028859;28;20030;-66
2021/08/23 13:59:04;;;;;;;14.05;7.68;;;;;;;;;;5024197;28;20068;-67
2021/08/23 14:01:31;;;;;;;13.23;6.45;;;;;;;;;;5027199;28;20037;-67
2021/08/23 14:03:58;;;;;;;14.68;7.47;;;;;;;;;;5026273;28;20032;-66
2021/08/23 14:06:25;;;;;;;12.68;7.35;;;;;;;;;;5027780;28;20045;-66
2021/08/23 14:08:52;;;;;;;9.95;7.15;;;;;;;;;;5030371;28;20062;-65
2021/08/23 14:11:20;;;;;;;11.65;7.32;;;;;;;;;;5031055;28;20033;-66
2021/08/23 14:13:48;;;;;;;11.98;6.93;;;;;;;;;;5030213;28;20033;-66
2021/08/23 14:16:15;;;;;;;11.57;6.90;;;;;;;;;;5031121;28;20160;-66
2021/08/23 14:18:42;;;;;;;12.57;7.43;;;;;;;;;;5029566;28;20041;-66
2021/08/23 14:21:09;;;;;;;13.57;7.43;;;;;;;;;;5032599;28;20561;-66
2021/08/23 14:23:37;;;;;;;14.68;7.03;;;;;;;;;;5031047;28;20107;-67
2021/08/23 14:26:04;;;;;;;11.50;5.97;;;;;;;;;;5031809;28;20390;-67
2021/08/23 14:28:31;;;;;;;12.20;6.55;;;;;;;;;;5029668;28;20029;-67
2021/08/23 14:30:58;;;;;;;10.43;6.50;;;;;;;;;;5031121;28;20505;-67
2021/08/23 14:33:25;;;;;;;10.52;7.72;;;;;;;;;;5029461;28;20053;-67
2021/08/23 14:35:52;;;;;;;9.75;7.20;;;;;;;;;;5030043;28;20042;-67
2021/08/23 14:38:19;;;;;;;10.50;6.75;;;;;;;;;;5031953;28;20543;-67
2021/08/23 14:40:46;;;;;;;10.80;6.97;;;;;;;;;;5032246;28;20044;-68
2021/08/23 14:43:13;;;;;;;9.88;7.25;;;;;;;;;;5009537;28;20091;-68
2021/08/23 14:45:40;;;;;;;10.73;5.43;;;;;;;;;;5029907;28;20083;-68
2021/08/23 14:48:08;;;;;;;7.63;2.47;;;;;;;;;;5030632;28;20076;-68